createdAt,value
2022-09-12T00:01:11.057Z,27.73
2022-09-12T00:03:38.590Z,26.88
2022-09-12T00:06:09.011Z,27.55
2022-09-12T00:08:35.332Z,28.52
2022-09-12T00:11:04.493Z,28.42
2022-09-12T00:13:31.129Z,27.92
2022-09-12T00:15:57.534Z,27.25
2022-09-12T00:18:23.814Z,25.63
2022-09-12T00:20:50.208Z,26.98
2022-09-12T00:23:16.462Z,26.70
2022-09-12T00:25:46.560Z,26.92
2022-09-12T00:28:13.566Z,27.67
2022-09-12T00:30:40.535Z,29.98
2022-09-12T00:33:06.951Z,26.55
2022-09-12T00:35:33.354Z,27.42
2022-09-12T00:37:59.577Z,26.65
2022-09-12T00:40:27.242Z,29.02
2022-09-12T00:42:53.610Z,27.52
2022-09-12T00:45:23.002Z,27.95
2022-09-12T00:47:49.382Z,28.88
2022-09-12T00:50:16.316Z,30.23
2022-09-12T00:52:42.549Z,28.80
2022-09-12T00:55:24.167Z,28.85
2022-09-12T00:57:55.611Z,29.40
2022-09-12T01:00:24.247Z,27.23
2022-09-12T01:02:52.894Z,28.92
2022-09-12T01:05:20.092Z,34.58
2022-09-12T01:07:50.031Z,31.98
2022-09-12T01:10:16.823Z,30.45
2022-09-12T01:12:43.529Z,34.63
2022-09-12T01:15:09.804Z,31.60
2022-09-12T01:17:48.488Z,31.63
2022-09-12T01:20:31.478Z,30.30
2022-09-12T01:23:25.503Z,33.65
2022-09-12T01:25:54.693Z,29.25
2022-09-12T01:28:32.556Z,30.08
2022-09-12T01:31:07.660Z,28.83
2022-09-12T01:33:36.393Z,30.10
2022-09-12T01:36:03.559Z,29.95
2022-09-12T01:38:29.805Z,30.60
2022-09-12T01:40:58.981Z,29.45
2022-09-12T01:43:26.646Z,30.23
2022-09-12T01:45:58.359Z,29.45
2022-09-12T01:48:27.320Z,32.05
2022-09-12T01:51:00.164Z,29.48
2022-09-12T01:53:29.578Z,33.45
2022-09-12T01:56:00.246Z,31.95
2022-09-12T01:58:29.106Z,33.05
2022-09-12T02:00:59.822Z,32.53
2022-09-12T02:03:32.864Z,33.75
2022-09-12T02:06:12.707Z,31.50
2022-09-12T02:08:42.451Z,31.40
2022-09-12T02:11:09.742Z,34.05
2022-09-12T02:13:51.438Z,31.67
2022-09-12T02:16:36.867Z,30.60
2022-09-12T02:19:07.377Z,30.23
2022-09-12T02:21:36.095Z,34.08
2022-09-12T02:24:02.829Z,33.72
2022-09-12T02:26:31.188Z,36.70
2022-09-12T02:28:57.495Z,43.45
2022-09-12T02:31:39.073Z,42.05
2022-09-12T02:34:25.522Z,40.58
2022-09-12T02:37:07.508Z,41.10
2022-09-12T02:39:33.769Z,37.13
2022-09-12T02:42:01.662Z,37.58
2022-09-12T02:44:29.635Z,36.20
2022-09-12T02:46:58.490Z,35.97
2022-09-12T02:49:24.728Z,35.85
2022-09-12T02:51:51.072Z,35.95
2022-09-12T02:54:17.801Z,34.80
2022-09-12T02:56:45.126Z,34.08
2022-09-12T02:59:14.179Z,35.17
2022-09-12T03:01:40.395Z,36.92
2022-09-12T03:04:06.835Z,39.80
2022-09-12T03:06:51.436Z,36.22
2022-09-12T03:09:20.180Z,35.13
2022-09-12T03:11:52.160Z,36.70
2022-09-12T03:14:24.329Z,33.20
2022-09-12T03:16:51.121Z,37.22
2022-09-12T03:19:35.731Z,38.00
2022-09-12T03:22:14.325Z,38.10
2022-09-12T03:24:46.458Z,36.63
2022-09-12T03:27:18.688Z,38.25
2022-09-12T03:29:46.086Z,39.15
2022-09-12T03:32:12.377Z,40.30
2022-09-12T03:34:38.986Z,41.28
2022-09-12T03:37:05.283Z,40.53
2022-09-12T03:39:31.732Z,41.60
2022-09-12T03:41:58.030Z,47.15
2022-09-12T03:44:24.698Z,45.40
2022-09-12T03:46:50.942Z,43.17
2022-09-12T03:49:17.523Z,46.70
2022-09-12T03:51:43.719Z,42.72
2022-09-12T03:54:10.456Z,45.97
2022-09-12T03:56:37.019Z,47.17
2022-09-12T03:59:06.706Z,43.10
2022-09-12T04:01:32.995Z,43.65
2022-09-12T04:03:59.246Z,47.22
2022-09-12T04:06:25.511Z,45.55
2022-09-12T04:08:52.691Z,46.42
2022-09-12T04:11:19.806Z,46.10
2022-09-12T04:13:46.534Z,47.03
2022-09-12T04:16:13.846Z,49.05
2022-09-12T04:18:40.522Z,49.22
2022-09-12T04:21:08.237Z,48.92
2022-09-12T04:23:34.752Z,51.65
2022-09-12T04:26:01.860Z,48.42
2022-09-12T04:28:32.784Z,48.70
2022-09-12T04:31:03.978Z,49.03
2022-09-12T04:33:30.468Z,50.58
2022-09-12T04:35:56.629Z,47.40
2022-09-12T04:38:22.850Z,50.55
2022-09-12T04:40:49.027Z,49.55
2022-09-12T04:43:15.226Z,48.50
2022-09-12T04:45:41.462Z,47.10
2022-09-12T04:48:07.715Z,49.13
2022-09-12T04:50:33.902Z,48.05
2022-09-12T04:53:00.229Z,49.55
2022-09-12T04:55:26.489Z,51.47
2022-09-12T04:57:52.954Z,50.58
2022-09-12T05:00:19.166Z,48.42
2022-09-12T05:02:45.396Z,47.58
2022-09-12T05:05:11.676Z,47.13
2022-09-12T05:07:37.916Z,47.35
2022-09-12T05:10:04.500Z,46.75
2022-09-12T05:12:31.066Z,45.67
2022-09-12T05:14:57.298Z,45.45
2022-09-12T05:17:23.481Z,46.42
2022-09-12T05:19:49.779Z,44.33
2022-09-12T05:22:16.024Z,43.72
2022-09-12T05:24:47.290Z,41.47
2022-09-12T05:27:16.157Z,41.08
2022-09-12T05:29:42.982Z,39.90
2022-09-12T05:32:09.623Z,39.22
2022-09-12T05:34:35.924Z,37.15
2022-09-12T05:37:02.191Z,35.53
2022-09-12T05:39:28.385Z,34.80
2022-09-12T05:41:54.584Z,32.90
2022-09-12T05:44:20.918Z,31.70
2022-09-12T05:46:50.320Z,30.17
2022-09-12T05:49:16.657Z,30.10
2022-09-12T05:51:43.971Z,29.70
2022-09-12T05:54:11.885Z,29.55
2022-09-12T05:56:39.315Z,29.95
2022-09-12T05:59:06.698Z,28.92
2022-09-12T06:01:33.883Z,27.60
2022-09-12T06:04:01.550Z,29.10
2022-09-12T06:06:29.046Z,27.23
2022-09-12T06:09:01.981Z,27.25
2022-09-12T06:11:29.379Z,27.55
2022-09-12T06:13:56.906Z,27.17
2022-09-12T06:16:25.977Z,25.08
2022-09-12T06:18:53.723Z,27.63
2022-09-12T06:21:20.631Z,25.75
2022-09-12T06:23:47.947Z,27.25
2022-09-12T06:26:16.006Z,25.27
2022-09-12T06:28:42.878Z,23.85
2022-09-12T06:31:11.107Z,24.60
2022-09-12T06:33:38.614Z,23.95
2022-09-12T06:36:12.348Z,22.98
2022-09-12T06:38:39.369Z,22.17
2022-09-12T06:41:06.975Z,20.27
2022-09-12T06:43:33.761Z,21.63
2022-09-12T06:46:00.609Z,23.08
2022-09-12T06:48:27.622Z,22.85
2022-09-12T06:50:57.624Z,24.05
2022-09-12T06:53:24.357Z,21.45
2022-09-12T06:56:01.088Z,22.75
2022-09-12T06:58:27.906Z,24.17
2022-09-12T07:01:02.206Z,22.27
2022-09-12T07:03:28.534Z,23.60
2022-09-12T07:05:54.724Z,21.98
2022-09-12T07:08:21.007Z,21.95
2022-09-12T07:10:47.204Z,22.60
2022-09-12T07:13:14.058Z,23.35
2022-09-12T07:15:40.311Z,24.65
2022-09-12T07:18:06.632Z,24.60
2022-09-12T07:20:33.053Z,21.58
2022-09-12T07:22:59.892Z,22.58
2022-09-12T07:25:26.550Z,22.52
2022-09-12T07:27:52.999Z,21.92
2022-09-12T07:30:19.496Z,22.50
2022-09-12T07:32:45.683Z,22.73
2022-09-12T07:35:11.873Z,23.60
2022-09-12T07:37:38.207Z,21.73
2022-09-12T07:40:04.649Z,23.52
2022-09-12T07:42:31.164Z,22.73
2022-09-12T07:44:57.371Z,21.95
2022-09-12T07:47:23.578Z,22.52
2022-09-12T07:49:49.838Z,22.63
2022-09-12T07:52:16.021Z,22.60
2022-09-12T07:54:42.193Z,22.23
2022-09-12T07:57:08.588Z,22.08
2022-09-12T07:59:51.945Z,21.17
2022-09-12T08:02:19.441Z,21.10
2022-09-12T08:04:46.902Z,19.38
2022-09-12T08:07:13.133Z,20.58
2022-09-12T08:09:39.316Z,20.00
2022-09-12T08:12:05.693Z,20.65
2022-09-12T08:14:31.999Z,21.25
2022-09-12T08:16:58.227Z,20.27
2022-09-12T08:19:24.396Z,21.95
2022-09-12T08:21:50.635Z,20.05
2022-09-12T08:24:17.126Z,21.25
2022-09-12T08:26:43.342Z,20.23
2022-09-12T08:29:09.544Z,20.85
2022-09-12T08:31:36.896Z,20.88
2022-09-12T08:34:04.521Z,19.98
2022-09-12T08:36:30.949Z,19.27
2022-09-12T08:38:59.913Z,20.08
2022-09-12T08:41:30.166Z,19.05
2022-09-12T08:44:15.413Z,18.40
2022-09-12T08:49:10.396Z,18.40
2022-09-12T08:51:36.726Z,19.45
2022-09-12T08:54:04.497Z,18.65
2022-09-12T08:56:35.959Z,18.85
2022-09-12T08:59:02.764Z,16.77
2022-09-12T09:01:31.214Z,17.15
2022-09-12T09:04:26.932Z,18.45
2022-09-12T09:07:04.347Z,17.38
2022-09-12T09:09:39.551Z,17.48
2022-09-12T09:12:06.618Z,16.00
2022-09-12T09:14:51.774Z,16.95
2022-09-12T09:17:27.453Z,16.00
2022-09-12T09:20:05.480Z,15.13
2022-09-12T09:22:38.106Z,17.17
2022-09-12T09:25:27.635Z,15.50
2022-09-12T09:27:58.562Z,14.65
2022-09-12T09:30:24.793Z,14.88
2022-09-12T09:32:53.494Z,14.43
2022-09-12T09:35:22.717Z,14.10
2022-09-12T09:38:18.737Z,13.48
2022-09-12T09:40:51.137Z,14.95
2022-09-12T09:43:22.541Z,14.50
2022-09-12T09:45:49.543Z,16.65
2022-09-12T09:48:21.049Z,16.50
2022-09-12T09:50:48.919Z,14.20
2022-09-12T09:53:25.352Z,14.27
2022-09-12T09:55:53.301Z,12.48
2022-09-12T09:58:32.818Z,11.23
2022-09-12T10:01:03.629Z,11.68
2022-09-12T10:03:31.423Z,13.70
2022-09-12T10:05:59.874Z,12.45
2022-09-12T10:08:27.640Z,12.70
2022-09-12T10:11:01.792Z,12.05
2022-09-12T10:13:32.104Z,10.88
2022-09-12T10:16:02.961Z,13.30
2022-09-12T10:18:37.280Z,11.38
2022-09-12T10:21:12.669Z,10.93
2022-09-12T10:23:41.017Z,9.35
2022-09-12T10:26:12.469Z,9.95
2022-09-12T10:28:40.368Z,10.05
2022-09-12T10:31:08.564Z,7.57
2022-09-12T10:33:53.681Z,7.15
2022-09-12T10:36:20.711Z,9.00
2022-09-12T10:38:55.188Z,8.10
2022-09-12T10:41:21.902Z,7.10
2022-09-12T10:43:48.665Z,7.97
2022-09-12T10:46:15.556Z,7.63
2022-09-12T10:48:42.409Z,7.00
2022-09-12T10:51:28.994Z,7.53
2022-09-12T10:53:57.450Z,7.82
2022-09-12T10:56:25.666Z,6.47
2022-09-12T10:58:53.557Z,5.85
2022-09-12T11:01:25.613Z,5.13
2022-09-12T11:03:59.321Z,5.93
2022-09-12T11:06:30.362Z,4.70
2022-09-12T11:09:09.844Z,5.00
2022-09-12T11:11:45.041Z,5.50
2022-09-12T11:14:25.080Z,5.55
2022-09-12T11:17:03.406Z,5.40
2022-09-12T11:19:37.160Z,5.15
2022-09-12T11:22:09.416Z,4.53
2022-09-12T11:24:47.695Z,4.38
2022-09-12T11:27:32.308Z,4.93
2022-09-12T11:30:01.771Z,4.57
2022-09-12T11:32:41.338Z,4.00
2022-09-12T11:35:07.871Z,5.05
2022-09-12T11:37:37.210Z,4.32
2022-09-12T11:40:22.766Z,4.72
2022-09-12T11:42:51.990Z,4.30
2022-09-12T11:45:28.286Z,3.28
2022-09-12T11:47:57.710Z,3.80
2022-09-12T11:50:28.547Z,3.92
2022-09-12T11:53:07.502Z,3.60
2022-09-12T11:55:43.446Z,3.60
2022-09-12T11:58:10.877Z,3.28
2022-09-12T12:00:40.945Z,3.58
2022-09-12T12:03:15.040Z,3.20
2022-09-12T12:05:44.330Z,3.50
2022-09-12T12:08:10.965Z,2.80
2022-09-12T12:10:38.936Z,3.13
2022-09-12T12:13:13.364Z,3.30
2022-09-12T12:15:45.243Z,3.00
2022-09-12T12:18:16.731Z,3.55
2022-09-12T12:20:43.032Z,3.40
2022-09-12T12:23:22.653Z,3.33
2022-09-12T12:25:51.971Z,3.05
2022-09-12T12:28:51.095Z,3.22
2022-09-12T12:31:17.905Z,3.30
2022-09-12T12:33:44.117Z,2.78
2022-09-12T12:36:11.346Z,3.38
2022-09-12T12:38:38.752Z,3.15
2022-09-12T12:41:17.195Z,3.00
2022-09-12T12:43:50.710Z,3.42
2022-09-12T12:46:18.175Z,3.22
2022-09-12T12:48:47.428Z,3.50
2022-09-12T12:51:25.440Z,3.50
2022-09-12T12:53:52.445Z,3.65
2022-09-12T12:56:26.426Z,3.40
2022-09-12T12:59:04.469Z,3.43
2022-09-12T13:01:31.213Z,3.10
2022-09-12T13:04:05.506Z,2.95
2022-09-12T13:06:35.919Z,2.80
2022-09-12T13:09:14.261Z,3.15
2022-09-12T13:11:41.057Z,3.13
2022-09-12T13:14:27.238Z,3.15
2022-09-12T13:16:54.868Z,3.50
2022-09-12T13:19:24.313Z,3.50
2022-09-12T13:21:57.225Z,3.40
2022-09-12T13:24:23.756Z,3.80
2022-09-12T13:26:49.964Z,3.35
2022-09-12T13:29:16.222Z,3.17
2022-09-12T13:31:46.734Z,2.97
2022-09-12T13:34:19.947Z,3.40
2022-09-12T13:37:12.576Z,3.05
2022-09-12T13:39:49.815Z,3.55
2022-09-12T13:42:26.045Z,3.58
2022-09-12T13:45:12.855Z,2.97
2022-09-12T13:47:58.827Z,3.05
2022-09-12T13:50:26.803Z,2.90
2022-09-12T13:52:54.879Z,2.92
2022-09-12T13:55:30.147Z,3.08
2022-09-12T13:57:58.069Z,3.00
2022-09-12T14:00:24.511Z,3.00
2022-09-12T14:03:10.722Z,2.90
2022-09-12T14:05:38.485Z,3.10
2022-09-12T14:08:06.838Z,3.20
2022-09-12T14:10:34.490Z,3.22
2022-09-12T14:13:05.380Z,3.22
2022-09-12T14:15:32.680Z,3.55
2022-09-12T14:18:01.419Z,3.08
2022-09-12T14:20:34.394Z,3.13
2022-09-12T14:23:06.467Z,3.45
2022-09-12T14:25:37.213Z,3.22
2022-09-12T14:28:03.730Z,2.60
2022-09-12T14:30:35.009Z,2.80
2022-09-12T14:33:10.146Z,3.03
2022-09-12T14:35:43.465Z,3.85
2022-09-12T14:38:17.737Z,3.10
2022-09-12T14:41:13.471Z,3.17
2022-09-12T14:43:44.474Z,3.17
2022-09-12T14:46:19.915Z,2.88
2022-09-12T14:48:48.675Z,2.88
2022-09-12T14:51:35.043Z,2.88
2022-09-12T14:54:01.332Z,2.90
2022-09-12T14:56:38.482Z,3.10
2022-09-12T14:59:37.299Z,3.40
2022-09-12T15:02:24.570Z,3.00
2022-09-12T15:04:52.573Z,3.00
2022-09-12T15:07:28.186Z,3.20
2022-09-12T15:09:54.443Z,3.20
2022-09-12T15:12:20.695Z,3.03
2022-09-12T15:14:47.020Z,3.10
2022-09-12T15:17:13.235Z,2.90
2022-09-12T15:19:39.417Z,3.55
2022-09-12T15:22:05.684Z,3.42
2022-09-12T15:24:31.971Z,3.13
2022-09-12T15:26:58.350Z,3.15
2022-09-12T15:29:24.766Z,3.22
2022-09-12T15:31:51.107Z,3.65
2022-09-12T15:34:17.293Z,3.08
2022-09-12T15:36:43.503Z,3.20
2022-09-12T15:39:10.518Z,2.92
2022-09-12T15:41:37.831Z,3.42
2022-09-12T15:44:04.981Z,3.30
2022-09-12T15:46:31.351Z,3.30
2022-09-12T15:48:57.676Z,3.60
2022-09-12T15:51:23.941Z,3.22
2022-09-12T15:53:50.920Z,3.15
2022-09-12T15:56:18.195Z,3.10
2022-09-12T15:58:57.765Z,2.90
2022-09-12T16:01:24.912Z,2.60
2022-09-12T16:03:51.245Z,3.25
2022-09-12T16:06:17.456Z,2.95
2022-09-12T16:08:43.865Z,2.90
2022-09-12T16:11:39.297Z,2.75
2022-09-12T16:14:05.917Z,2.60
2022-09-12T16:16:32.409Z,3.03
2022-09-12T16:18:58.610Z,3.05
2022-09-12T16:21:25.198Z,2.60
2022-09-12T16:23:51.453Z,2.53
2022-09-12T16:26:17.698Z,2.83
2022-09-12T16:28:44.407Z,2.92
2022-09-12T16:31:11.594Z,3.03
2022-09-12T16:33:38.419Z,3.00
2022-09-12T16:36:09.220Z,3.10
2022-09-12T16:38:40.259Z,2.90
2022-09-12T16:41:06.707Z,2.53
2022-09-12T16:43:33.789Z,2.95
2022-09-12T16:46:00.903Z,3.00
2022-09-12T16:48:27.181Z,2.60
2022-09-12T16:50:57.824Z,2.65
2022-09-12T16:53:24.189Z,2.67
2022-09-12T16:55:51.090Z,2.75
2022-09-12T16:58:17.311Z,2.70
2022-09-12T17:00:43.517Z,2.40
2022-09-12T17:03:09.950Z,2.45
2022-09-12T17:05:36.295Z,2.22
2022-09-12T17:08:02.882Z,2.40
2022-09-12T17:10:30.625Z,2.75
2022-09-12T17:12:57.160Z,2.20
2022-09-12T17:15:23.506Z,2.33
2022-09-12T17:17:51.994Z,2.33
2022-09-12T17:20:18.218Z,2.45
2022-09-12T17:22:44.443Z,2.05
2022-09-12T17:25:10.653Z,2.10
2022-09-12T17:27:37.253Z,2.42
2022-09-12T17:30:04.362Z,2.10
2022-09-12T17:32:30.548Z,2.08
2022-09-12T17:34:57.128Z,2.17
2022-09-12T17:37:23.409Z,2.08
2022-09-12T17:39:49.809Z,2.25
2022-09-12T17:42:16.087Z,2.15
2022-09-12T17:44:42.313Z,2.15
2022-09-12T17:47:08.512Z,1.90
2022-09-12T17:49:36.558Z,2.00
2022-09-12T17:52:02.871Z,2.03
2022-09-12T17:54:29.121Z,2.20
2022-09-12T17:56:56.162Z,2.08
2022-09-12T17:59:24.602Z,2.40
2022-09-12T18:02:09.293Z,2.60
2022-09-12T18:04:35.704Z,2.42
2022-09-12T18:07:02.027Z,2.47
2022-09-12T18:09:28.389Z,2.40
2022-09-12T18:11:54.660Z,2.60
2022-09-12T18:14:20.953Z,3.22
2022-09-12T18:16:47.477Z,2.90
2022-09-12T18:19:14.097Z,2.53
2022-09-12T18:21:40.905Z,2.60
2022-09-12T18:24:07.133Z,2.80
2022-09-12T18:26:33.529Z,2.65
2022-09-12T18:28:59.801Z,2.53
2022-09-12T18:31:28.674Z,2.20
2022-09-12T18:33:55.581Z,2.25
2022-09-12T18:36:22.150Z,2.80
2022-09-12T18:38:48.575Z,2.85
2022-09-12T18:41:16.143Z,3.15
2022-09-12T18:43:42.416Z,2.88
2022-09-12T18:46:13.271Z,3.17
2022-09-12T18:48:39.523Z,3.50
2022-09-12T18:51:11.120Z,3.10
2022-09-12T18:53:37.822Z,2.80
2022-09-12T18:56:04.736Z,3.53
2022-09-12T18:58:30.954Z,3.03
2022-09-12T19:00:58.428Z,3.13
2022-09-12T19:03:24.857Z,2.40
2022-09-12T19:05:51.309Z,2.13
2022-09-12T19:08:18.089Z,1.83
2022-09-12T19:10:47.327Z,2.03
2022-09-12T19:13:13.675Z,2.25
2022-09-12T19:15:40.121Z,1.70
2022-09-12T19:18:06.396Z,1.50
2022-09-12T19:20:35.094Z,1.50
2022-09-12T19:23:01.301Z,1.70
2022-09-12T19:25:27.483Z,1.50
2022-09-12T19:27:53.671Z,1.60
2022-09-12T19:30:19.873Z,2.13
2022-09-12T19:32:46.103Z,1.60
2022-09-12T19:35:14.071Z,1.80
2022-09-12T19:37:40.265Z,1.70
2022-09-12T19:40:07.685Z,1.83
2022-09-12T19:42:34.011Z,1.75
2022-09-12T19:45:00.201Z,2.00
2022-09-12T19:47:26.519Z,1.75
2022-09-12T19:49:52.724Z,1.73
2022-09-12T19:52:18.883Z,1.50
2022-09-12T19:54:45.388Z,1.70
2022-09-12T19:57:11.611Z,1.40
2022-09-12T19:59:37.801Z,1.63
2022-09-12T20:02:04.197Z,1.90
2022-09-12T20:04:31.702Z,1.98
2022-09-12T20:06:57.891Z,1.95
2022-09-12T20:09:24.377Z,1.98
2022-09-12T20:11:50.584Z,2.38
2022-09-12T20:14:16.783Z,2.10
2022-09-12T20:16:45.379Z,2.10
2022-09-12T20:19:11.822Z,1.98
2022-09-12T20:21:38.061Z,2.65
2022-09-12T20:24:05.529Z,2.22
2022-09-12T20:26:31.892Z,2.40
2022-09-12T20:28:58.206Z,2.70
2022-09-12T20:31:24.430Z,3.03
2022-09-12T20:33:52.143Z,3.28
2022-09-12T20:36:19.362Z,2.92
2022-09-12T20:38:50.033Z,3.17
2022-09-12T20:41:16.552Z,3.00
2022-09-12T20:43:42.766Z,3.42
2022-09-12T20:46:10.234Z,2.88
2022-09-12T20:48:37.317Z,3.03
2022-09-12T20:51:03.753Z,2.83
2022-09-12T20:53:34.293Z,2.53
2022-09-12T20:56:01.214Z,2.75
2022-09-12T20:58:27.431Z,2.53
2022-09-12T21:00:53.638Z,2.35
2022-09-12T21:03:20.013Z,2.90
2022-09-12T21:05:46.421Z,2.63
2022-09-12T21:08:13.197Z,2.63
2022-09-12T21:10:45.282Z,2.67
2022-09-12T21:13:11.924Z,2.78
2022-09-12T21:15:38.779Z,3.45
2022-09-12T21:18:05.208Z,2.78
2022-09-12T21:20:31.731Z,3.15
2022-09-12T21:22:57.963Z,2.95
2022-09-12T21:25:24.202Z,2.60
2022-09-12T21:27:50.431Z,3.25
2022-09-12T21:30:16.806Z,2.60
2022-09-12T21:32:43.013Z,3.22
2022-09-12T21:35:09.327Z,2.33
2022-09-12T21:37:35.556Z,2.80
2022-09-12T21:40:01.890Z,1.95
2022-09-12T21:42:28.128Z,2.60
2022-09-12T21:44:54.510Z,3.08
2022-09-12T21:47:20.665Z,2.70
2022-09-12T21:49:46.847Z,2.40
2022-09-12T21:52:13.016Z,2.47
2022-09-12T21:54:39.385Z,3.10
2022-09-12T21:57:05.862Z,2.70
2022-09-12T21:59:32.030Z,2.75
2022-09-12T22:01:58.478Z,2.42
2022-09-12T22:04:25.061Z,2.58
2022-09-12T22:06:51.229Z,2.72
2022-09-12T22:09:17.494Z,3.10
2022-09-12T22:11:43.963Z,2.67
2022-09-12T22:14:10.451Z,3.60
2022-09-12T22:16:36.637Z,3.10
2022-09-12T22:19:03.135Z,2.92
2022-09-12T22:21:29.298Z,2.97
2022-09-12T22:24:14.028Z,2.90
2022-09-12T22:26:43.839Z,2.83
2022-09-12T22:29:10.968Z,3.20
2022-09-12T22:31:37.564Z,2.90
2022-09-12T22:34:03.945Z,3.05
2022-09-12T22:36:31.373Z,2.45
2022-09-12T22:38:58.869Z,2.60
2022-09-12T22:41:25.178Z,2.88
2022-09-12T22:43:51.414Z,2.70
2022-09-12T22:46:17.640Z,2.53
2022-09-12T22:48:43.877Z,2.35
2022-09-12T22:51:10.543Z,3.00
2022-09-12T22:53:37.281Z,2.78
2022-09-12T22:56:04.977Z,2.70
2022-09-12T22:58:31.905Z,2.92
2022-09-12T23:00:58.273Z,3.35
2022-09-12T23:03:24.570Z,2.85
2022-09-12T23:05:50.828Z,2.10
2022-09-12T23:08:23.240Z,2.20
2022-09-12T23:10:49.542Z,2.00
2022-09-12T23:13:15.751Z,2.40
2022-09-12T23:15:41.932Z,2.67
2022-09-12T23:18:08.389Z,2.42
2022-09-12T23:20:34.579Z,2.20
2022-09-12T23:23:00.799Z,2.72
2022-09-12T23:25:27.048Z,2.47
2022-09-12T23:27:53.842Z,2.97
2022-09-12T23:30:21.663Z,2.70
2022-09-12T23:32:48.927Z,3.50
2022-09-12T23:35:17.935Z,3.40
2022-09-12T23:37:44.176Z,3.17
2022-09-12T23:40:10.665Z,4.00
2022-09-12T23:42:37.383Z,3.33
2022-09-12T23:45:04.315Z,3.72
2022-09-12T23:47:30.559Z,3.72
2022-09-12T23:49:56.805Z,3.25
2022-09-12T23:52:23.022Z,3.80
2022-09-12T23:54:49.238Z,3.17
2022-09-12T23:57:15.434Z,3.60
2022-09-12T23:59:41.627Z,3.45
